Time;durP1;ratioP1;P1;durP2;ratioP2;P2;SDS_P1;SDS_P2;PMS_P1;PMS_P2;Temp;Humidity;BMP_temperature;BMP_pressure;BME280_temperature;BME280_humidity;BME280_pressure;Samples;Min_cycle;Max_cycle;Signal;HPM_P1;HPM_P2
2021/11/20 00:00:40;;;;;;;12.40;8.50;;;;;;;9.76;100.00;99608.69;5037414;28;20707;-62
2021/11/20 00:03:06;;;;;;;14.63;8.83;;;;;;;9.75;100.00;99618.97;5035070;28;20033;-62
2021/11/20 00:05:36;;;;;;;10.93;7.60;;;;;;;9.73;100.00;99613.81;5040888;28;20626;-62
2021/11/20 00:08:02;;;;;;;14.00;8.93;;;;;;;9.78;100.00;99639.44;5036205;28;20132;-61
2021/11/20 00:10:30;;;;;;;13.77;6.73;;;;;;;9.80;100.00;99627.50;5035895;28;20033;-61
2021/11/20 00:12:57;;;;;;;12.27;6.50;;;;;;;9.74;100.00;99630.03;5030676;28;20111;-61
2021/11/20 00:15:30;;;;;;;9.27;7.13;;;;;;;9.78;100.00;99632.59;5040509;28;20601;-61
2021/11/20 00:17:56;;;;;;;9.90;6.83;;;;;;;9.79;100.00;99626.63;5035060;28;20044;-62
2021/11/20 00:20:23;;;;;;;10.20;7.23;;;;;;;9.82;100.00;99628.34;5032732;28;20029;-62
2021/11/20 00:22:50;;;;;;;8.43;6.20;;;;;;;9.82;100.00;99634.31;5034893;28;20047;-61
2021/11/20 00:25:25;;;;;;;11.70;7.17;;;;;;;9.75;100.00;99630.06;5042108;28;20082;-60
2021/11/20 00:27:53;;;;;;;8.50;6.10;;;;;;;9.76;100.00;99625.78;5039089;28;20040;-62
2021/11/20 00:30:23;;;;;;;9.17;6.07;;;;;;;9.73;100.00;99633.44;5037514;28;20029;-61
2021/11/20 00:32:54;;;;;;;15.13;7.07;;;;;;;9.71;100.00;99627.50;5033766;28;20072;-62
2021/11/20 00:35:23;;;;;;;9.10;5.97;;;;;;;9.66;100.00;99613.81;5039648;28;20426;-61
2021/11/20 00:37:50;;;;;;;9.73;6.90;;;;;;;9.68;100.00;99612.09;5036407;28;20055;-62
2021/11/20 00:40:24;;;;;;;9.10;5.87;;;;;;;9.63;100.00;99607.84;5034077;28;20183;-62
2021/11/20 00:42:49;;;;;;;10.53;7.10;;;;;;;9.61;100.00;99603.59;5033585;28;20201;-61
2021/11/20 00:45:15;;;;;;;12.47;7.87;;;;;;;9.61;100.00;99613.81;5037198;28;20064;-62
2021/11/20 00:47:41;;;;;;;10.53;7.17;;;;;;;9.63;100.00;99609.56;5031637;28;20056;-62
2021/11/20 00:50:07;;;;;;;11.13;6.90;;;;;;;9.57;100.00;99623.22;5034445;28;20056;-62
2021/11/20 00:52:33;;;;;;;12.83;8.20;;;;;;;9.52;100.00;99617.22;5038626;28;20034;-61
2021/11/20 00:54:59;;;;;;;10.37;7.77;;;;;;;9.54;100.00;99624.91;5040314;28;20484;-64
2021/11/20 00:57:24;;;;;;;11.33;6.83;;;;;;;9.48;100.00;99614.66;5040030;28;20029;-60
2021/11/20 00:59:50;;;;;;;14.80;8.13;;;;;;;9.54;100.00;99628.34;5042206;28;20033;-60
2021/11/20 01:02:16;;;;;;;15.63;7.93;;;;;;;9.62;100.00;99620.66;5040429;28;20049;-61
2021/11/20 01:04:41;;;;;;;11.13;7.23;;;;;;;9.61;100.00;99613.81;5040332;28;20091;-62
2021/11/20 01:07:08;;;;;;;11.43;7.77;;;;;;;9.56;100.00;99631.75;5035134;28;20030;-62
2021/11/20 01:09:39;;;;;;;14.83;7.67;;;;;;;9.60;100.00;99617.22;5033977;28;20455;-62
2021/11/20 01:12:09;;;;;;;13.23;7.13;;;;;;;9.57;100.00;99610.41;5036887;28;20087;-61
2021/11/20 01:14:36;;;;;;;12.63;8.20;;;;;;;9.61;100.00;99607.00;5038415;28;20043;-61
2021/11/20 01:17:04;;;;;;;10.77;6.80;;;;;;;9.58;100.00;99611.28;5035081;28;20064;-62
2021/11/20 01:19:30;;;;;;;10.87;6.77;;;;;;;9.58;100.00;99604.44;5034816;28;20033;-62
2021/11/20 01:21:57;;;;;;;10.37;7.23;;;;;;;9.57;100.00;99607.00;5036541;28;20120;-62
2021/11/20 01:24:23;;;;;;;11.83;6.57;;;;;;;9.53;100.00;99603.59;5044134;28;20026;-62
2021/11/20 01:26:49;;;;;;;9.27;6.90;;;;;;;9.58;100.00;99595.91;5033663;28;20364;-62
2021/11/20 01:29:16;;;;;;;11.87;6.00;;;;;;;9.55;100.00;99588.19;5033827;28;20125;-62
2021/11/20 01:31:45;;;;;;;9.60;6.90;;;;;;;9.53;100.00;99579.69;5035394;28;20037;-61
2021/11/20 01:34:10;;;;;;;9.37;6.03;;;;;;;9.50;100.00;99579.69;5037666;28;20032;-62
2021/11/20 01:36:38;;;;;;;9.50;5.70;;;;;;;9.53;100.00;99577.13;5039943;28;20025;-62
2021/11/20 01:39:13;;;;;;;10.13;5.63;;;;;;;9.56;100.00;99574.56;5041877;28;20124;-62
2021/11/20 01:41:41;;;;;;;7.17;5.50;;;;;;;9.49;100.00;99578.84;5039921;28;20049;-62
2021/11/20 01:44:14;;;;;;;8.80;5.30;;;;;;;9.48;100.00;99583.94;5042074;28;20037;-63
2021/11/20 01:46:43;;;;;;;7.63;5.53;;;;;;;9.44;100.00;99569.44;5036933;28;20043;-62
2021/11/20 01:49:19;;;;;;;10.73;6.53;;;;;;;9.34;100.00;99553.22;5038356;28;20017;-63
2021/11/20 01:51:52;;;;;;;9.97;6.07;;;;;;;9.37;100.00;99560.06;5037163;28;20034;-61
2021/11/20 01:54:25;;;;;;;10.93;6.37;;;;;;;9.31;100.00;99578.81;5038081;28;20033;-63
2021/11/20 01:57:00;;;;;;;9.10;5.77;;;;;;;9.27;100.00;99576.25;5039808;28;20448;-63
2021/11/20 01:59:33;;;;;;;10.80;6.55;;;;;;;9.22;100.00;99566.00;5043337;28;20029;-63
2021/11/20 02:02:13;;;;;;;9.20;6.23;;;;;;;9.22;100.00;99567.69;5043939;28;20041;-62
2021/11/20 02:04:52;;;;;;;11.80;6.30;;;;;;;9.15;100.00;99567.72;5034102;28;20067;-62
2021/11/20 02:07:17;;;;;;;8.30;6.87;;;;;;;9.12;100.00;99562.56;5035904;28;20485;-62
2021/11/20 02:10:02;;;;;;;11.10;6.97;;;;;;;9.04;100.00;99564.25;5036832;28;20034;-62
2021/11/20 02:12:33;;;;;;;11.13;7.85;;;;;;;9.01;100.00;99573.63;5037010;28;20068;-61
2021/11/20 02:14:59;;;;;;;11.07;6.67;;;;;;;9.03;100.00;99582.19;5034816;28;20497;-62
2021/11/20 02:17:32;;;;;;;13.53;7.43;;;;;;;9.01;100.00;99578.75;5036885;28;20029;-62
2021/11/20 02:20:17;;;;;;;10.27;7.13;;;;;;;9.01;100.00;99566.81;5042351;28;20040;-61
2021/11/20 02:22:42;;;;;;;13.80;6.53;;;;;;;9.02;100.00;99567.69;5038925;28;20500;-63
2021/11/20 02:25:07;;;;;;;10.77;6.63;;;;;;;9.02;100.00;99568.53;5034755;28;20042;-62
2021/11/20 02:27:40;;;;;;;11.30;6.47;;;;;;;9.03;100.00;99569.41;5039035;28;20090;-61
2021/11/20 02:30:25;;;;;;;10.53;7.00;;;;;;;9.01;100.00;99573.63;5038707;28;20155;-62
2021/11/20 02:32:58;;;;;;;10.48;6.43;;;;;;;9.03;100.00;99570.25;5038634;28;20032;-63
2021/11/20 02:35:30;;;;;;;8.10;6.40;;;;;;;9.03;100.00;99565.13;5038363;28;20052;-62
2021/11/20 02:37:57;;;;;;;9.17;6.23;;;;;;;8.99;100.00;99576.22;5039894;28;20040;-62
2021/11/20 02:40:24;;;;;;;11.83;6.77;;;;;;;8.97;100.00;99562.56;5036323;28;20084;-62
2021/11/20 02:42:49;;;;;;;9.77;6.50;;;;;;;8.89;100.00;99564.25;5037630;28;20053;-62
2021/11/20 02:45:30;;;;;;;7.53;6.40;;;;;;;8.92;100.00;99558.25;5039750;28;20057;-62
2021/11/20 02:47:56;;;;;;;11.30;6.73;;;;;;;8.94;100.00;99562.56;5040832;28;20025;-62
2021/11/20 02:50:53;;;;;;;9.80;6.53;;;;;;;8.94;100.00;99567.66;5039643;28;20039;-61
2021/11/20 02:53:26;;;;;;;10.80;6.57;;;;;;;8.89;100.00;99568.50;5037398;28;20399;-62
2021/11/20 02:55:52;;;;;;;10.20;6.17;;;;;;;8.91;100.00;99565.06;5043024;28;20467;-62
2021/11/20 02:58:22;;;;;;;8.73;6.13;;;;;;;8.96;100.00;99565.94;5041344;28;20022;-62
2021/11/20 03:00:53;;;;;;;8.80;5.53;;;;;;;8.89;100.00;99551.44;5037204;28;20029;-62
2021/11/20 03:03:20;;;;;;;5.97;5.23;;;;;;;8.97;100.00;99549.75;5037263;28;20037;-62
2021/11/20 03:05:45;;;;;;;7.50;5.23;;;;;;;8.97;100.00;99547.22;5037223;28;20479;-62
2021/11/20 03:08:11;;;;;;;10.30;6.23;;;;;;;8.92;100.00;99554.00;5041042;28;20060;-62
2021/11/20 03:10:36;;;;;;;9.37;5.17;;;;;;;8.91;100.00;99536.94;5038065;28;20426;-62
2021/11/20 03:13:02;;;;;;;9.13;6.43;;;;;;;8.89;100.00;99543.78;5034240;28;20483;-62
2021/11/20 03:15:28;;;;;;;7.93;5.27;;;;;;;8.89;100.00;99536.13;5038868;28;20096;-61
2021/11/20 03:17:53;;;;;;;7.40;4.90;;;;;;;8.92;100.00;99533.56;5040725;28;20060;-61
2021/11/20 03:20:20;;;;;;;7.17;4.83;;;;;;;8.92;100.00;99536.09;5034743;28;20044;-62
2021/11/20 03:22:59;;;;;;;6.77;4.97;;;;;;;8.88;100.00;99539.50;5034917;28;20502;-62
2021/11/20 03:25:25;;;;;;;6.33;4.43;;;;;;;8.87;100.00;99527.56;5040448;28;20074;-62
2021/11/20 03:27:51;;;;;;;7.40;4.70;;;;;;;8.84;100.00;99530.13;5038465;28;20025;-61
2021/11/20 03:30:17;;;;;;;7.97;5.20;;;;;;;8.79;100.00;99541.19;5035568;28;20029;-61
2021/11/20 03:32:43;;;;;;;6.60;3.93;;;;;;;8.76;100.00;99531.81;5034045;28;20102;-62
2021/11/20 03:35:09;;;;;;;5.27;4.17;;;;;;;8.79;100.00;99513.06;5037576;28;20025;-62
2021/11/20 03:37:34;;;;;;;5.47;4.03;;;;;;;8.75;100.00;99519.88;5035938;28;20386;-61
2021/11/20 03:40:00;;;;;;;6.37;4.67;;;;;;;8.67;100.00;99524.97;5036578;28;20025;-61
2021/11/20 03:42:25;;;;;;;5.53;4.17;;;;;;;8.67;100.00;99529.22;5034850;28;20076;-62
2021/11/20 03:44:51;;;;;;;6.13;4.27;;;;;;;8.60;100.00;99520.69;5035676;28;20068;-65
2021/11/20 03:47:17;;;;;;;6.00;3.97;;;;;;;8.64;100.00;99527.53;5037457;28;20040;-61
2021/11/20 03:49:44;;;;;;;6.83;4.20;;;;;;;8.61;100.00;99526.66;5034784;28;20040;-62
2021/11/20 03:52:11;;;;;;;7.10;4.00;;;;;;;8.61;100.00;99529.22;5042784;28;20480;-64
2021/11/20 03:54:37;;;;;;;4.73;4.00;;;;;;;8.63;100.00;99536.03;5041704;28;20029;-62
2021/11/20 03:57:03;;;;;;;3.77;3.37;;;;;;;8.67;100.00;99536.91;5037402;28;20029;-62
2021/11/20 03:59:29;;;;;;;4.20;3.80;;;;;;;8.57;100.00;99530.06;5036080;28;20037;-62
2021/11/20 04:01:55;;;;;;;4.37;3.67;;;;;;;8.64;100.00;99535.19;5040143;28;20033;-63
2021/11/20 04:04:20;;;;;;;4.83;3.57;;;;;;;8.68;100.00;99538.63;5041380;28;20505;-63
2021/11/20 04:06:46;;;;;;;4.07;3.67;;;;;;;8.65;100.00;99528.38;5036820;28;20041;-62
2021/11/20 04:09:13;;;;;;;5.57;3.60;;;;;;;8.61;100.00;99544.56;5035170;28;20029;-63
2021/11/20 04:11:40;;;;;;;5.37;3.93;;;;;;;8.63;100.00;99524.97;5038639;28;20037;-62
2021/11/20 04:14:06;;;;;;;4.10;3.33;;;;;;;8.62;100.00;99526.66;5037279;28;20033;-63
2021/11/20 04:16:33;;;;;;;3.23;2.90;;;;;;;8.60;100.00;99538.59;5038496;28;20029;-62
2021/11/20 04:18:59;;;;;;;5.70;3.60;;;;;;;8.63;100.00;99542.84;5040412;28;20033;-63
2021/11/20 04:21:27;;;;;;;3.47;2.87;;;;;;;8.59;100.00;99543.69;5036953;28;20048;-62
2021/11/20 04:23:55;;;;;;;3.97;2.77;;;;;;;8.65;100.00;99552.25;5043110;28;20139;-63
2021/11/20 04:26:23;;;;;;;3.20;2.90;;;;;;;8.63;100.00;99536.03;5043602;28;20029;-62
2021/11/20 04:28:49;;;;;;;4.03;3.63;;;;;;;8.64;100.00;99549.69;5050856;28;20029;-62
2021/11/20 04:31:16;;;;;;;5.63;3.43;;;;;;;8.58;100.00;99560.72;5045571;28;20025;-62
2021/11/20 04:33:43;;;;;;;5.07;3.13;;;;;;;8.55;100.00;99557.31;5045900;28;20032;-63
2021/11/20 04:36:09;;;;;;;3.50;3.20;;;;;;;8.57;100.00;99545.41;5042056;28;20043;-62
2021/11/20 04:38:35;;;;;;;3.87;3.50;;;;;;;8.47;100.00;99553.88;5040095;28;20078;-61
2021/11/20 04:41:01;;;;;;;4.07;3.60;;;;;;;8.55;100.00;99559.84;5046510;28;20034;-62
2021/11/20 04:43:26;;;;;;;4.30;3.50;;;;;;;8.58;100.00;99567.53;5040202;28;20044;-64
2021/11/20 04:45:53;;;;;;;3.70;3.33;;;;;;;8.53;100.00;99570.06;5037774;28;20057;-63
2021/11/20 04:48:20;;;;;;;5.13;3.70;;;;;;;8.50;100.00;99564.09;5043106;28;20025;-64
2021/11/20 04:50:46;;;;;;;5.00;3.63;;;;;;;8.48;100.00;99576.88;5042714;28;20524;-64
2021/11/20 04:53:13;;;;;;;4.50;3.63;;;;;;;8.56;100.00;99582.03;5043345;28;20029;-64
2021/11/20 04:55:38;;;;;;;5.63;3.70;;;;;;;8.52;100.00;99570.94;5038015;28;20097;-61
2021/11/20 04:58:04;;;;;;;4.37;3.10;;;;;;;8.49;100.00;99567.47;5041724;28;20049;-62
2021/11/20 05:00:36;;;;;;;4.37;2.80;;;;;;;8.49;100.00;99568.34;5044443;28;20030;-62
2021/11/20 05:03:07;;;;;;;4.00;3.00;;;;;;;8.51;100.00;99553.88;5037063;28;20053;-62
2021/11/20 05:05:38;;;;;;;7.63;3.97;;;;;;;8.50;100.00;99549.63;5032654;28;20037;-62
2021/11/20 05:08:04;;;;;;;4.13;3.30;;;;;;;8.39;100.00;99551.28;5042441;28;20026;-62
2021/11/20 05:10:31;;;;;;;4.20;3.40;;;;;;;8.34;100.00;99552.09;5040402;28;20056;-62
2021/11/20 05:12:57;;;;;;;3.80;3.33;;;;;;;8.42;100.00;99570.88;5039815;28;20040;-63
2021/11/20 05:15:22;;;;;;;3.90;3.50;;;;;;;8.44;100.00;99559.84;5038930;28;20486;-62
2021/11/20 05:17:48;;;;;;;3.93;3.03;;;;;;;8.40;100.00;99559.81;5044338;28;20093;-63
2021/11/20 05:20:14;;;;;;;4.53;3.40;;;;;;;8.36;100.00;99560.66;5049909;28;20024;-62
2021/11/20 05:22:40;;;;;;;3.90;3.50;;;;;;;8.33;100.00;99565.72;5044171;28;20039;-63
2021/11/20 05:25:06;;;;;;;3.47;2.90;;;;;;;8.37;100.00;99565.75;5043999;28;20124;-63
2021/11/20 05:27:32;;;;;;;3.73;3.13;;;;;;;8.35;100.00;99557.22;5044848;28;20136;-63
2021/11/20 05:30:07;;;;;;;3.53;3.20;;;;;;;8.24;100.00;99552.03;5041853;28;20527;-63
2021/11/20 05:32:33;;;;;;;2.58;2.30;;;;;;;8.25;100.00;99548.63;5040938;28;20043;-62
2021/11/20 05:34:59;;;;;;;3.63;2.70;;;;;;;8.22;100.00;99558.84;5039029;28;20045;-63
2021/11/20 05:37:25;;;;;;;3.20;2.90;;;;;;;8.06;100.00;99535.75;5042884;28;20030;-62
2021/11/20 05:39:50;;;;;;;2.37;2.17;;;;;;;8.07;100.00;99545.09;5040094;28;20029;-60
2021/11/20 05:42:16;;;;;;;2.97;2.40;;;;;;;8.06;100.00;99545.97;5040611;28;20047;-62
2021/11/20 05:44:41;;;;;;;3.37;2.27;;;;;;;8.02;100.00;99557.03;5038524;28;20054;-61
2021/11/20 05:47:07;;;;;;;4.60;2.10;;;;;;;7.97;100.00;99553.56;5040118;28;20026;-61
2021/11/20 05:49:36;;;;;;;2.43;2.10;;;;;;;7.95;100.00;99545.03;5039502;28;20067;-62
2021/11/20 05:52:04;;;;;;;2.50;2.30;;;;;;;7.97;100.00;99558.69;5038919;28;20781;-61
2021/11/20 05:54:31;;;;;;;2.33;2.13;;;;;;;7.89;100.00;99533.13;5039890;28;20094;-62
2021/11/20 05:56:56;;;;;;;2.60;2.10;;;;;;;7.85;100.00;99551.78;5040431;28;20117;-61
2021/11/20 05:59:23;;;;;;;2.10;1.60;;;;;;;7.82;100.00;99549.22;5037983;28;20469;-62
2021/11/20 06:01:50;;;;;;;1.77;1.67;;;;;;;7.81;100.00;99553.47;5036331;28;20034;-60
2021/11/20 06:04:15;;;;;;;1.67;1.43;;;;;;;7.77;100.00;99555.97;5038057;28;20387;-63
2021/11/20 06:06:41;;;;;;;2.27;1.60;;;;;;;7.76;100.00;99557.72;5041902;28;20033;-61
2021/11/20 06:09:07;;;;;;;3.13;1.97;;;;;;;7.77;100.00;99551.72;5040523;28;20037;-62
2021/11/20 06:11:33;;;;;;;2.20;1.90;;;;;;;7.77;100.00;99564.50;5036032;28;20048;-63
2021/11/20 06:13:58;;;;;;;1.33;1.23;;;;;;;7.76;100.00;99555.16;5038485;28;20033;-63
2021/11/20 06:16:23;;;;;;;1.70;1.60;;;;;;;7.81;100.00;99561.13;5040169;28;20048;-62
2021/11/20 06:18:49;;;;;;;1.50;1.40;;;;;;;7.79;100.00;99552.63;5040577;28;20028;-62
2021/11/20 06:21:15;;;;;;;1.63;1.40;;;;;;;7.78;100.00;99561.09;5036936;28;20490;-62
2021/11/20 06:23:41;;;;;;;2.87;1.50;;;;;;;7.78;100.00;99556.00;5039594;28;20087;-62
2021/11/20 06:26:08;;;;;;;1.60;1.50;;;;;;;7.83;100.00;99530.50;5040870;28;20029;-62
2021/11/20 06:28:34;;;;;;;1.70;1.60;;;;;;;7.87;100.00;99556.91;5035491;28;20404;-62
2021/11/20 06:31:01;;;;;;;3.03;2.20;;;;;;;7.87;100.00;99534.78;5032720;28;20053;-62
2021/11/20 06:33:27;;;;;;;2.60;1.40;;;;;;;7.97;100.00;99528.91;5041893;28;20083;-62
2021/11/20 06:35:53;;;;;;;1.40;1.30;;;;;;;8.04;100.00;99532.34;5038720;28;20064;-62
2021/11/20 06:38:20;;;;;;;1.60;1.50;;;;;;;8.10;100.00;99535.78;5039990;28;20029;-62
2021/11/20 06:40:47;;;;;;;1.50;1.37;;;;;;;8.15;100.00;99535.78;5039350;28;20391;-62
2021/11/20 06:43:15;;;;;;;1.67;0.90;;;;;;;8.17;100.00;99529.84;5039841;28;20080;-62
2021/11/20 06:45:46;;;;;;;1.30;1.20;;;;;;;8.32;100.00;99529.09;5037257;28;20053;-62
2021/11/20 06:48:13;;;;;;;1.90;1.10;;;;;;;8.35;100.00;99518.06;5034352;28;20399;-63
2021/11/20 06:50:41;;;;;;;1.73;1.50;;;;;;;8.39;100.00;99522.31;5039123;28;20170;-63
2021/11/20 06:53:09;;;;;;;1.13;1.00;;;;;;;8.47;100.00;99554.72;5054221;28;20040;-62
2021/11/20 06:55:35;;;;;;;4.70;1.20;;;;;;;8.50;100.00;99534.28;5035506;28;20171;-62
2021/11/20 07:01:06;;;;;;;1.00;1.00;;;;;;;8.65;100.00;99561.63;5039507;28;20068;-63
2021/11/20 07:03:39;;;;;;;1.10;1.00;;;;;;;8.71;100.00;99530.94;5040222;28;20033;-63
2021/11/20 07:06:18;;;;;;;1.90;0.83;;;;;;;8.67;100.00;99542.88;5035167;28;20048;-64
2021/11/20 07:08:45;;;;;;;1.00;0.90;;;;;;;8.83;100.00;99553.13;5038569;28;20033;-62
2021/11/20 07:11:10;;;;;;;0.60;0.60;;;;;;;8.81;100.00;99553.13;5037808;28;20476;-62
2021/11/20 07:13:36;;;;;;;4.10;1.10;;;;;;;8.89;100.00;99559.13;5039812;28;20052;-62
2021/11/20 07:16:02;;;;;;;0.93;0.93;;;;;;;8.92;100.00;99553.16;5040258;28;20086;-62
2021/11/20 07:18:27;;;;;;;0.93;0.80;;;;;;;9.01;100.00;99550.63;5036925;28;20033;-62
2021/11/20 07:20:53;;;;;;;0.77;0.77;;;;;;;9.09;100.00;99562.56;5039852;28;20536;-63
2021/11/20 07:23:19;;;;;;;0.80;0.80;;;;;;;9.10;100.00;99564.28;5038526;28;20029;-63
2021/11/20 07:25:45;;;;;;;1.10;0.60;;;;;;;9.23;100.00;99570.28;5038084;28;20037;-63
2021/11/20 07:28:11;;;;;;;0.70;0.70;;;;;;;9.30;100.00;99553.22;5032750;28;20410;-62
2021/11/20 07:30:38;;;;;;;0.60;0.60;;;;;;;9.35;100.00;99567.72;5037488;28;20091;-63
2021/11/20 07:33:05;;;;;;;0.60;0.60;;;;;;;9.38;100.00;99564.31;5036398;28;20346;-61
2021/11/20 07:35:41;;;;;;;1.60;0.60;;;;;;;9.39;100.00;99559.19;5036777;28;20026;-62
2021/11/20 07:38:09;;;;;;;1.33;0.60;;;;;;;9.41;100.00;99554.09;5036588;28;20021;-63
2021/11/20 07:40:37;;;;;;;0.70;0.70;;;;;;;9.37;100.00;99552.38;5037933;28;20037;-63
2021/11/20 07:43:05;;;;;;;0.80;0.80;;;;;;;9.28;100.00;99568.59;5037043;28;20041;-61
2021/11/20 07:45:30;;;;;;;0.73;0.70;;;;;;;9.38;100.00;99538.72;5035503;28;20089;-62
2021/11/20 07:47:56;;;;;;;0.73;0.60;;;;;;;9.41;100.00;99539.59;5036275;28;20468;-61
2021/11/20 07:50:22;;;;;;;0.70;0.70;;;;;;;9.42;100.00;99560.94;5036587;28;20025;-63
2021/11/20 07:52:48;;;;;;;0.60;0.60;;;;;;;9.56;100.00;99552.38;5034652;28;20091;-63
2021/11/20 07:55:15;;;;;;;0.70;0.70;;;;;;;9.57;100.00;99540.44;5037275;28;20033;-63
2021/11/20 07:57:41;;;;;;;0.60;0.60;;;;;;;9.62;100.00;99559.22;5040136;28;20033;-63
2021/11/20 08:00:16;;;;;;;0.60;0.60;;;;;;;9.65;100.00;99538.72;5037202;28;20021;-62
2021/11/20 08:02:42;;;;;;;0.60;0.60;;;;;;;9.49;100.00;99557.50;5033629;28;20033;-61
2021/11/20 08:05:07;;;;;;;0.77;0.53;;;;;;;9.55;100.00;99542.97;5038212;28;20103;-62
2021/11/20 08:07:35;;;;;;;0.60;0.60;;;;;;;9.52;100.00;99558.34;5037143;28;20025;-62
2021/11/20 08:10:02;;;;;;;0.60;0.60;;;;;;;9.64;100.00;99535.31;5034230;28;20132;-62
2021/11/20 08:12:28;;;;;;;0.60;0.60;;;;;;;9.62;100.00;99549.84;5041796;28;20108;-62
2021/11/20 08:14:53;;;;;;;0.70;0.70;;;;;;;9.73;100.00;99534.44;5042691;28;20040;-63
2021/11/20 08:17:19;;;;;;;0.80;0.80;;;;;;;9.79;100.00;99537.00;5037908;28;20447;-62
2021/11/20 08:19:45;;;;;;;0.70;0.70;;;;;;;9.79;100.00;99511.41;5037509;28;20028;-63
2021/11/20 08:22:10;;;;;;;0.73;0.73;;;;;;;9.73;100.00;99542.13;5040676;28;20040;-63
2021/11/20 08:24:36;;;;;;;2.10;1.37;;;;;;;9.80;100.00;99531.00;5038860;28;20037;-61
2021/11/20 08:27:02;;;;;;;0.83;0.83;;;;;;;9.90;100.00;99524.16;5038990;28;20064;-58
2021/11/20 08:29:30;;;;;;;1.00;1.00;;;;;;;9.88;100.00;99521.63;5034987;28;20112;-55
2021/11/20 08:31:56;;;;;;;0.90;0.70;;;;;;;9.88;100.00;99526.75;5040692;28;20095;-59
2021/11/20 08:34:23;;;;;;;0.90;0.70;;;;;;;9.92;100.00;99523.34;5038619;28;20031;-55
2021/11/20 08:36:49;;;;;;;0.70;0.70;;;;;;;10.05;100.00;99525.00;5040411;28;20029;-55
2021/11/20 08:39:16;;;;;;;0.73;0.73;;;;;;;10.17;100.00;99515.59;5041789;28;20032;-56
2021/11/20 08:41:44;;;;;;;0.70;0.70;;;;;;;10.24;100.00;99540.34;5037327;28;20064;-59
2021/11/20 08:44:10;;;;;;;1.00;0.70;;;;;;;10.17;100.00;99508.78;5035225;28;20112;-58
2021/11/20 08:46:36;;;;;;;0.90;0.90;;;;;;;10.21;100.00;99524.97;5035930;28;20178;-59
2021/11/20 08:49:03;;;;;;;0.70;0.70;;;;;;;10.15;100.00;99509.59;5036161;28;20028;-58
2021/11/20 08:51:30;;;;;;;2.77;0.80;;;;;;;10.23;100.00;99518.13;5037434;28;20590;-58
2021/11/20 08:53:56;;;;;;;1.07;0.80;;;;;;;10.29;100.00;99513.84;5038995;28;20113;-60
2021/11/20 08:56:22;;;;;;;1.00;0.90;;;;;;;10.32;100.00;99520.66;5034987;28;20107;-60
2021/11/20 08:58:49;;;;;;;1.90;1.17;;;;;;;10.31;100.00;99522.38;5033975;28;20030;-60
2021/11/20 09:01:17;;;;;;;1.23;0.80;;;;;;;10.42;100.00;99524.91;5038626;28;20432;-61
2021/11/20 09:04:09;;;;;;;1.20;1.00;;;;;;;10.36;100.00;99515.53;5034201;28;20037;-60
2021/11/20 09:06:53;;;;;;;1.77;0.83;;;;;;;10.51;100.00;99525.72;5033107;28;20025;-61
2021/11/20 09:09:34;;;;;;;1.10;1.00;;;;;;;10.53;100.00;99553.91;5034961;28;20036;-61
2021/11/20 09:12:04;;;;;;;0.80;0.80;;;;;;;10.57;100.00;99529.97;5034094;28;20494;-60
2021/11/20 09:14:33;;;;;;;0.90;0.90;;;;;;;10.47;100.00;99513.78;5033243;28;20045;-61
2021/11/20 09:16:59;;;;;;;0.95;0.95;;;;;;;10.58;100.00;99518.84;5034123;28;20077;-60
2021/11/20 09:19:27;;;;;;;1.05;1.05;;;;;;;10.61;100.00;99512.88;5032247;28;20032;-61
2021/11/20 09:21:53;;;;;;;1.10;1.10;;;;;;;10.42;100.00;99506.97;5033850;28;20703;-58
2021/11/20 09:24:19;;;;;;;1.00;1.00;;;;;;;10.57;100.00;99513.72;5034272;28;20048;-60
2021/11/20 09:26:44;;;;;;;0.80;0.80;;;;;;;10.52;100.00;99513.75;5031441;28;20412;-60
2021/11/20 09:29:13;;;;;;;1.47;1.10;;;;;;;10.59;100.00;99514.56;5034891;28;20479;-60
2021/11/20 09:31:43;;;;;;;0.90;0.90;;;;;;;10.65;100.00;99507.69;5033188;28;20080;-60
2021/11/20 09:34:09;;;;;;;0.80;0.80;;;;;;;10.61;100.00;99518.81;5032750;28;20052;-60
2021/11/20 09:36:36;;;;;;;1.00;1.00;;;;;;;10.67;100.00;99520.50;5034360;28;20041;-60
2021/11/20 09:39:08;;;;;;;2.30;1.95;;;;;;;10.73;100.00;99511.09;5033544;28;20060;-59
2021/11/20 09:42:04;;;;;;;1.20;1.10;;;;;;;10.83;99.89;99515.28;5031864;28;20033;-61
2021/11/20 09:44:35;;;;;;;1.67;1.58;;;;;;;11.02;98.21;99503.22;5032955;28;20045;-60
2021/11/20 09:47:28;;;;;;;1.30;1.30;;;;;;;10.91;96.67;99497.28;5034834;28;20037;-60
2021/11/20 09:50:16;;;;;;;1.10;1.10;;;;;;;10.90;98.08;99506.72;5032545;28;20048;-58
2021/11/20 09:52:43;;;;;;;1.52;1.08;;;;;;;10.72;98.27;99517.06;5031550;28;20395;-59
2021/11/20 09:55:20;;;;;;;0.93;0.93;;;;;;;10.87;99.08;99496.44;5037925;28;20040;-58
2021/11/20 09:58:05;;;;;;;0.93;0.93;;;;;;;10.94;96.75;99497.28;5035909;28;20037;-59
2021/11/20 10:00:44;;;;;;;1.45;1.35;;;;;;;11.01;96.55;99496.38;5036379;28;20055;-59
2021/11/20 10:03:25;;;;;;;2.13;1.50;;;;;;;10.90;96.74;99496.47;5034083;28;20046;-59
2021/11/20 10:06:02;;;;;;;1.42;1.33;;;;;;;11.02;96.12;99504.91;5037401;28;20025;-60
2021/11/20 10:08:29;;;;;;;0.80;0.80;;;;;;;10.62;97.79;99507.72;5036425;28;20128;-60
2021/11/20 10:11:24;;;;;;;0.95;0.95;;;;;;;10.75;98.81;99498.25;5042921;28;20091;-59
2021/11/20 10:13:58;;;;;;;1.55;0.88;;;;;;;10.56;99.53;99497.50;5036661;28;20140;-58
2021/11/20 10:16:41;;;;;;;1.30;1.20;;;;;;;10.69;100.00;99494.03;5039089;28;20037;-60
2021/11/20 10:19:18;;;;;;;1.00;0.90;;;;;;;10.72;98.50;99511.94;5035378;28;20464;-59
2021/11/20 10:22:11;;;;;;;0.93;0.93;;;;;;;10.72;98.48;99498.28;5033602;28;20475;-59
2021/11/20 10:24:52;;;;;;;1.20;1.10;;;;;;;10.80;98.82;99481.97;5038499;28;20030;-59
2021/11/20 10:27:30;;;;;;;0.90;0.90;;;;;;;10.80;98.49;99504.19;5038519;28;20128;-58
2021/11/20 10:30:16;;;;;;;2.15;1.13;;;;;;;10.90;98.51;99482.78;5034544;28;20073;-59
2021/11/20 10:32:52;;;;;;;1.50;1.40;;;;;;;10.81;99.85;99482.81;5035400;28;20021;-59
2021/11/20 10:35:17;;;;;;;;;;;;;;;10.87;98.55;99477.63;5037850;28;20060;-59
2021/11/20 10:37:59;;;;;;;1.10;1.10;;;;;;;10.82;99.22;99475.09;5037519;28;19967;-60
2021/11/20 10:40:25;;;;;;;1.42;1.33;;;;;;;10.87;96.68;99478.50;5036766;28;20101;-61
2021/11/20 10:42:56;;;;;;;1.42;1.33;;;;;;;11.03;97.56;99473.28;5044812;28;20428;-58
2021/11/20 10:45:48;;;;;;;1.53;0.97;;;;;;;11.06;96.68;99474.09;5037335;28;20459;-60
2021/11/20 10:48:24;;;;;;;1.80;1.27;;;;;;;11.18;95.94;99468.88;5034791;28;20056;-60
2021/11/20 10:51:13;;;;;;;1.17;1.17;;;;;;;11.21;95.15;99468.84;5035611;28;20079;-62
2021/11/20 10:54:03;;;;;;;1.52;1.42;;;;;;;11.23;94.61;99479.09;5035899;28;20389;-62
2021/11/20 10:56:31;;;;;;;1.33;1.23;;;;;;;11.36;93.72;99467.88;5035029;28;20099;-61
2021/11/20 10:59:18;;;;;;;1.20;1.10;;;;;;;11.27;92.67;99466.22;5034409;28;20529;-61
2021/11/20 11:01:58;;;;;;;1.08;1.00;;;;;;;10.99;93.75;99473.28;5035373;28;20653;-59
2021/11/20 11:05:02;;;;;;;1.30;1.30;;;;;;;11.09;92.35;99474.06;5038020;28;20036;-59
2021/11/20 11:07:36;;;;;;;1.40;1.30;;;;;;;11.07;92.88;99475.81;5022919;28;20047;-59
2021/11/20 11:10:11;;;;;;;1.45;1.38;;;;;;;10.86;94.26;99469.09;5035301;28;20462;-59
2021/11/20 11:13:09;;;;;;;1.73;1.63;;;;;;;11.05;93.41;99467.25;5037302;28;20420;-61
2021/11/20 11:15:53;;;;;;;1.30;1.30;;;;;;;11.04;91.67;99470.69;5034734;28;20488;-61
2021/11/20 11:18:33;;;;;;;1.60;1.50;;;;;;;11.16;90.33;99462.88;5034400;28;20044;-61
2021/11/20 11:21:19;;;;;;;1.25;1.15;;;;;;;11.11;90.96;99449.25;5041740;28;20037;-61
2021/11/20 11:24:03;;;;;;;1.55;1.45;;;;;;;11.18;90.13;99450.03;5046098;28;20039;-61
2021/11/20 11:26:35;;;;;;;1.50;1.40;;;;;;;11.27;89.01;99452.53;5043070;28;20033;-62
2021/11/20 11:29:23;;;;;;;1.40;1.30;;;;;;;11.37;88.78;99443.91;5044022;28;20116;-60
2021/11/20 11:31:49;;;;;;;1.70;1.45;;;;;;;11.24;88.75;99437.19;5039194;28;20033;-60
2021/11/20 11:34:26;;;;;;;1.40;1.30;;;;;;;11.35;88.43;99443.91;5034751;28;20029;-61
2021/11/20 11:36:55;;;;;;;1.75;1.65;;;;;;;11.28;89.69;99441.41;5038924;28;20029;-59
2021/11/20 11:39:40;;;;;;;2.80;1.42;;;;;;;11.31;90.06;99438.81;5042625;28;20451;-59
2021/11/20 11:42:11;;;;;;;1.65;1.55;;;;;;;11.51;88.02;99438.63;5040094;28;20036;-59
2021/11/20 11:44:50;;;;;;;1.20;1.20;;;;;;;11.67;85.99;99427.34;5038506;28;20069;-57
2021/11/20 11:47:27;;;;;;;1.50;1.40;;;;;;;11.49;84.90;99419.81;5042331;28;20498;-59